createdAt,value
2019-02-23T00:02:00.209Z,-6.66
2019-02-23T00:04:06.529Z,-6.71
2019-02-23T00:06:13.724Z,-6.74
2019-02-23T00:08:19.960Z,-6.79
2019-02-23T00:10:26.194Z,-6.84
2019-02-23T00:12:32.390Z,-6.88
2019-02-23T00:14:38.656Z,-6.92
2019-02-23T00:16:44.884Z,-6.96
2019-02-23T00:18:51.208Z,-7.00
2019-02-23T00:20:57.400Z,-7.03
2019-02-23T00:23:03.632Z,-7.06
2019-02-23T00:25:09.797Z,-7.11
2019-02-23T00:27:16.151Z,-7.13
2019-02-23T00:29:22.375Z,-7.15
2019-02-23T00:31:28.529Z,-7.19
2019-02-23T00:33:35.724Z,-7.20
2019-02-23T00:35:41.960Z,-7.22
2019-02-23T00:37:49.197Z,-7.24
2019-02-23T00:39:55.384Z,-7.26
2019-02-23T00:42:01.639Z,-7.29
2019-02-23T00:44:07.779Z,-7.31
2019-02-23T00:46:14.041Z,-7.32
2019-02-23T00:48:20.283Z,-7.35
2019-02-23T00:50:26.426Z,-7.36
2019-02-23T00:52:32.733Z,-7.39
2019-02-23T00:54:38.891Z,-7.41
2019-02-23T00:56:45.126Z,-7.41
2019-02-23T00:58:51.314Z,-7.44
2019-02-23T01:00:57.650Z,-7.47
2019-02-23T01:03:03.949Z,-7.47
2019-02-23T01:05:10.945Z,-7.50
2019-02-23T01:07:17.444Z,-7.49
2019-02-23T01:09:24.685Z,-7.49
2019-02-23T01:11:31.007Z,-7.52
2019-02-23T01:13:37.363Z,-7.56
2019-02-23T01:15:43.592Z,-7.57
2019-02-23T01:17:49.847Z,-7.59
2019-02-23T01:19:56.214Z,-7.59
2019-02-23T01:22:03.480Z,-7.60
2019-02-23T01:24:09.825Z,-7.60
2019-02-23T01:26:16.273Z,-7.61
2019-02-23T01:28:22.632Z,-7.61
2019-02-23T01:30:28.945Z,-7.60
2019-02-23T01:32:35.238Z,-7.57
2019-02-23T01:34:41.411Z,-7.56
2019-02-23T01:36:47.777Z,-7.53
2019-02-23T01:38:54.278Z,-7.52
2019-02-23T01:41:00.434Z,-7.49
2019-02-23T01:43:06.959Z,-7.46
2019-02-23T01:45:13.343Z,-7.44
2019-02-23T01:47:19.498Z,-7.43
2019-02-23T01:49:25.895Z,-7.43
2019-02-23T01:51:33.935Z,-7.42
2019-02-23T01:53:40.228Z,-7.40
2019-02-23T01:55:46.501Z,-7.42
2019-02-23T01:57:52.814Z,-7.41
2019-02-23T01:59:59.117Z,-7.41
2019-02-23T02:02:05.498Z,-7.40
2019-02-23T02:04:11.792Z,-7.39
2019-02-23T02:06:18.143Z,-7.41
2019-02-23T02:08:24.427Z,-7.42
2019-02-23T02:10:30.744Z,-7.43
2019-02-23T02:12:37.272Z,-7.43
2019-02-23T02:14:43.664Z,-7.44
2019-02-23T02:16:50.026Z,-7.42
2019-02-23T02:18:56.329Z,-7.41
2019-02-23T02:21:02.658Z,-7.41
2019-02-23T02:23:08.827Z,-7.41
2019-02-23T02:25:15.131Z,-7.42
2019-02-23T02:27:21.393Z,-7.43
2019-02-23T02:29:27.702Z,-7.42
2019-02-23T02:31:33.995Z,-7.43
2019-02-23T02:34:07.422Z,-7.43
2019-02-23T02:36:13.578Z,-7.41
2019-02-23T02:38:19.880Z,-7.39
2019-02-23T02:40:26.065Z,-7.38
2019-02-23T02:42:32.352Z,-7.36
2019-02-23T02:44:38.722Z,-7.32
2019-02-23T02:46:44.969Z,-7.30
2019-02-23T02:48:51.331Z,-7.27
2019-02-23T02:50:57.479Z,-7.25
2019-02-23T02:53:03.820Z,-7.20
2019-02-23T02:55:10.361Z,-7.18
2019-02-23T02:57:16.595Z,-7.16
2019-02-23T02:59:22.873Z,-7.14
2019-02-23T03:01:29.083Z,-7.11
2019-02-23T03:03:35.276Z,-7.10
2019-02-23T03:05:41.687Z,-7.08
2019-02-23T03:07:48.053Z,-7.07
2019-02-23T03:09:54.353Z,-7.05
2019-02-23T03:12:00.746Z,-7.03
2019-02-23T03:14:06.981Z,-7.00
2019-02-23T03:16:13.272Z,-6.95
2019-02-23T03:18:19.603Z,-6.94
2019-02-23T03:20:36.314Z,-6.91
2019-02-23T03:22:33.804Z,-6.90
2019-02-23T03:24:40.139Z,-6.86
2019-02-23T03:26:46.359Z,-6.85
2019-02-23T03:28:52.601Z,-6.84
2019-02-23T03:30:58.931Z,-6.82
2019-02-23T03:33:05.197Z,-6.81
2019-02-23T03:35:11.550Z,-6.77
2019-02-23T03:37:18.534Z,-6.75
2019-02-23T03:39:24.754Z,-6.74
2019-02-23T03:41:30.976Z,-6.73
2019-02-23T03:43:37.144Z,-6.74
2019-02-23T03:45:43.439Z,-6.73
2019-02-23T03:47:49.732Z,-6.74
2019-02-23T03:49:55.982Z,-6.75
2019-02-23T03:52:02.286Z,-6.77
2019-02-23T03:54:08.580Z,-6.81
2019-02-23T03:56:14.831Z,-6.87
2019-02-23T03:58:21.056Z,-6.91
2019-02-23T04:00:28.211Z,-6.98
2019-02-23T04:02:34.401Z,-7.03
2019-02-23T04:04:40.865Z,-7.08
2019-02-23T04:06:48.263Z,-7.12
2019-02-23T04:08:54.661Z,-7.18
2019-02-23T04:11:01.137Z,-7.21
2019-02-23T04:13:07.450Z,-7.24
2019-02-23T04:15:13.938Z,-7.25
2019-02-23T04:17:20.481Z,-7.27
2019-02-23T04:19:26.717Z,-7.28
2019-02-23T04:21:33.034Z,-7.29
2019-02-23T04:23:39.271Z,-7.31
2019-02-23T04:25:47.241Z,-7.32
2019-02-23T04:27:53.497Z,-7.32
2019-02-23T04:29:59.797Z,-7.30
2019-02-23T04:32:06.095Z,-7.32
2019-02-23T04:34:12.345Z,-7.34
2019-02-23T04:36:18.711Z,-7.36
2019-02-23T04:38:25.801Z,-7.38
2019-02-23T04:40:32.116Z,-7.42
2019-02-23T04:42:38.416Z,-7.42
2019-02-23T04:44:44.780Z,-7.44
2019-02-23T04:46:51.196Z,-7.46
2019-02-23T04:48:57.577Z,-7.47
2019-02-23T04:51:13.775Z,-7.44
2019-02-23T04:53:11.969Z,-7.44
2019-02-23T04:55:18.332Z,-7.48
2019-02-23T04:57:24.629Z,-7.51
2019-02-23T04:59:31.011Z,-7.53
2019-02-23T05:01:37.175Z,-7.56
2019-02-23T05:03:43.538Z,-7.55
2019-02-23T05:05:49.936Z,-7.57
2019-02-23T05:07:56.313Z,-7.53
2019-02-23T05:10:02.535Z,-7.55
2019-02-23T05:12:09.921Z,-7.56
2019-02-23T05:14:16.217Z,-7.54
2019-02-23T05:16:22.656Z,-7.52
2019-02-23T05:18:28.975Z,-7.53
2019-02-23T05:20:35.305Z,-7.55
2019-02-23T05:22:41.678Z,-7.56
2019-02-23T05:24:47.930Z,-7.55
2019-02-23T05:26:54.196Z,-7.54
2019-02-23T05:29:00.441Z,-7.53
2019-02-23T05:31:06.615Z,-7.53
2019-02-23T05:33:12.862Z,-7.51
2019-02-23T05:35:19.096Z,-7.50
2019-02-23T05:37:25.290Z,-7.47
2019-02-23T05:39:31.452Z,-7.43
2019-02-23T05:41:37.634Z,-7.40
2019-02-23T05:43:43.817Z,-7.36
2019-02-23T05:45:49.972Z,-7.35
2019-02-23T05:47:56.215Z,-7.29
2019-02-23T05:50:02.559Z,-7.22
2019-02-23T05:52:08.711Z,-7.11
2019-02-23T05:54:15.062Z,-6.97
2019-02-23T05:56:21.306Z,-6.82
2019-02-23T05:58:27.543Z,-6.68
2019-02-23T06:00:33.857Z,-6.53
2019-02-23T06:02:40.042Z,-6.40
2019-02-23T06:04:46.207Z,-6.29
2019-02-23T06:06:52.515Z,-6.20
2019-02-23T06:08:58.707Z,-5.87
2019-02-23T06:11:04.945Z,-5.34
2019-02-23T06:13:12.238Z,-4.87
2019-02-23T06:15:18.424Z,-4.39
2019-02-23T06:17:24.601Z,-4.09
2019-02-23T06:19:30.826Z,-4.22
2019-02-23T06:21:37.025Z,-4.42
2019-02-23T06:23:43.190Z,-4.49
2019-02-23T06:25:49.393Z,-4.47
2019-02-23T06:27:56.764Z,-3.82
2019-02-23T06:30:03.002Z,-2.94
2019-02-23T06:32:09.228Z,-2.99
2019-02-23T06:34:16.661Z,-3.40
2019-02-23T06:36:23.061Z,-3.77
2019-02-23T06:38:29.242Z,-3.94
2019-02-23T06:40:35.566Z,-4.09
2019-02-23T06:42:41.797Z,-4.07
2019-02-23T06:44:48.016Z,-4.00
2019-02-23T06:46:54.273Z,-3.95
2019-02-23T06:49:00.439Z,-3.99
2019-02-23T06:51:06.615Z,-4.03
2019-02-23T06:53:12.806Z,-4.00
2019-02-23T06:55:18.965Z,-3.87
2019-02-23T06:57:25.390Z,-3.57
2019-02-23T06:59:31.712Z,-3.41
2019-02-23T07:01:37.877Z,-3.26
2019-02-23T07:03:44.050Z,-3.07
2019-02-23T07:05:50.316Z,-3.03
2019-02-23T07:07:56.558Z,-3.11
2019-02-23T07:10:02.788Z,-3.18
2019-02-23T07:12:08.971Z,-3.14
2019-02-23T07:14:15.265Z,-3.07
2019-02-23T07:16:21.559Z,-2.85
2019-02-23T07:18:27.916Z,-2.71
2019-02-23T07:20:43.690Z,-2.66
2019-02-23T07:22:42.034Z,-2.30
2019-02-23T07:24:48.231Z,-1.96
2019-02-23T07:26:54.462Z,-1.96
2019-02-23T07:29:00.619Z,-2.16
2019-02-23T07:31:06.805Z,-2.10
2019-02-23T07:33:13.037Z,-2.17
2019-02-23T07:35:19.340Z,-2.22
2019-02-23T07:37:25.525Z,-2.43
2019-02-23T07:39:31.698Z,-2.56
2019-02-23T07:41:37.859Z,-2.57
2019-02-23T07:43:44.201Z,-2.64
2019-02-23T07:45:50.352Z,-2.66
2019-02-23T07:47:56.522Z,-2.71
2019-02-23T07:50:02.705Z,-2.82
2019-02-23T07:52:09.177Z,-2.81
2019-02-23T07:54:15.335Z,-2.79
2019-02-23T07:56:21.688Z,-2.65
2019-02-23T07:58:27.915Z,-2.55
2019-02-23T08:00:34.241Z,-2.46
2019-02-23T08:02:40.507Z,-2.45
2019-02-23T08:04:46.663Z,-2.31
2019-02-23T08:06:52.908Z,-2.34
2019-02-23T08:08:59.108Z,-2.44
2019-02-23T08:11:05.317Z,-2.52
2019-02-23T08:13:11.487Z,-2.47
2019-02-23T08:15:17.883Z,-2.34
2019-02-23T08:17:24.050Z,-2.21
2019-02-23T08:19:30.228Z,-1.99
2019-02-23T08:21:36.416Z,-1.85
2019-02-23T08:23:42.637Z,-1.70
2019-02-23T08:25:48.863Z,-1.54
2019-02-23T08:27:55.062Z,-1.41
2019-02-23T08:30:01.296Z,-1.18
2019-02-23T08:32:07.858Z,-0.95
2019-02-23T08:34:14.205Z,-0.77
2019-02-23T08:36:20.506Z,-0.54
2019-02-23T08:38:26.843Z,-0.22
2019-02-23T08:40:33.165Z,-0.06
2019-02-23T08:42:39.402Z,-0.02
2019-02-23T08:44:45.555Z,0.05
2019-02-23T08:46:51.744Z,-0.12
2019-02-23T08:48:57.982Z,-0.08
2019-02-23T08:51:04.193Z,0.28
2019-02-23T08:53:10.446Z,0.52
2019-02-23T08:55:16.674Z,0.73
2019-02-23T08:57:23.026Z,0.71
2019-02-23T08:59:29.283Z,0.76
2019-02-23T09:01:36.200Z,0.74
2019-02-23T09:03:42.362Z,0.49
2019-02-23T09:05:48.550Z,0.40
2019-02-23T09:07:54.770Z,0.27
2019-02-23T09:10:00.942Z,-0.36
2019-02-23T09:12:07.131Z,-0.51
2019-02-23T09:14:13.365Z,-0.24
2019-02-23T09:16:19.611Z,-0.07
2019-02-23T09:18:26.101Z,0.24
2019-02-23T09:20:32.316Z,0.27
2019-02-23T09:22:38.610Z,0.28
2019-02-23T09:24:44.980Z,0.25
2019-02-23T09:26:51.376Z,0.49
2019-02-23T09:28:57.594Z,0.75
2019-02-23T09:31:03.784Z,0.98
2019-02-23T09:33:09.998Z,1.12
2019-02-23T09:35:17.289Z,1.40
2019-02-23T09:37:23.481Z,1.36
2019-02-23T09:39:29.694Z,1.27
2019-02-23T09:41:35.913Z,1.29
2019-02-23T09:43:42.091Z,1.27
2019-02-23T09:45:48.386Z,1.25
2019-02-23T09:47:54.620Z,1.28
2019-02-23T09:50:00.923Z,1.16
2019-02-23T09:52:07.210Z,1.15
2019-02-23T09:54:13.447Z,0.91
2019-02-23T09:56:19.689Z,1.14
2019-02-23T09:58:25.919Z,1.21
2019-02-23T10:00:32.139Z,1.21
2019-02-23T10:02:38.319Z,1.30
2019-02-23T10:04:44.549Z,1.39
2019-02-23T10:06:50.778Z,1.37
2019-02-23T10:08:56.955Z,1.30
2019-02-23T10:11:03.112Z,1.13
2019-02-23T10:13:09.406Z,0.84
2019-02-23T10:15:15.648Z,0.90
2019-02-23T10:17:22.043Z,1.07
2019-02-23T10:19:28.282Z,0.93
2019-02-23T10:21:34.525Z,0.90
2019-02-23T10:23:40.812Z,0.96
2019-02-23T10:25:46.970Z,0.90
2019-02-23T10:27:53.289Z,0.70
2019-02-23T10:29:59.515Z,0.80
2019-02-23T10:32:05.736Z,0.87
2019-02-23T10:34:12.142Z,0.87
2019-02-23T10:36:18.285Z,0.89
2019-02-23T10:38:24.646Z,0.86
2019-02-23T10:40:30.832Z,0.75
2019-02-23T10:42:36.990Z,0.80
2019-02-23T10:44:43.214Z,0.91
2019-02-23T10:46:49.403Z,1.01
2019-02-23T10:48:55.630Z,0.99
2019-02-23T10:51:01.857Z,0.95
2019-02-23T10:53:08.222Z,0.95
2019-02-23T10:55:15.630Z,0.92
2019-02-23T10:57:21.909Z,1.13
2019-02-23T10:59:28.159Z,1.31
2019-02-23T11:01:34.314Z,1.45
2019-02-23T11:03:40.530Z,1.45
2019-02-23T11:05:46.805Z,1.16
2019-02-23T11:07:53.029Z,1.14
2019-02-23T11:09:59.391Z,1.26
2019-02-23T11:12:05.735Z,1.41
2019-02-23T11:14:12.172Z,1.56
2019-02-23T11:16:18.323Z,1.68
2019-02-23T11:18:24.636Z,1.56
2019-02-23T11:20:31.499Z,1.51
2019-02-23T11:22:37.712Z,1.45
2019-02-23T11:24:43.955Z,1.43
2019-02-23T11:26:50.242Z,1.58
2019-02-23T11:28:56.392Z,1.38
2019-02-23T11:31:02.643Z,1.46
2019-02-23T11:33:08.864Z,1.43
2019-02-23T11:35:17.572Z,1.44
2019-02-23T11:37:23.472Z,1.63
2019-02-23T11:39:29.469Z,1.62
2019-02-23T11:41:35.894Z,1.62
2019-02-23T11:43:42.203Z,1.43
2019-02-23T11:45:49.175Z,1.29
2019-02-23T11:47:55.584Z,1.28
2019-02-23T11:50:01.942Z,1.33
2019-02-23T11:52:09.414Z,1.25
2019-02-23T11:54:15.628Z,1.13
2019-02-23T11:56:22.648Z,1.23
2019-02-23T11:58:28.968Z,1.37
2019-02-23T12:00:35.108Z,1.52
2019-02-23T12:02:51.727Z,1.07
2019-02-23T12:04:51.045Z,1.20
2019-02-23T12:06:57.279Z,1.11
2019-02-23T12:09:03.723Z,1.14
2019-02-23T12:11:11.476Z,1.21
2019-02-23T12:13:17.779Z,1.33
2019-02-23T12:15:24.235Z,1.48
2019-02-23T12:17:30.536Z,1.50
2019-02-23T12:19:36.835Z,1.39
2019-02-23T12:21:43.247Z,1.43
2019-02-23T12:23:49.456Z,1.50
2019-02-23T12:25:55.772Z,1.46
2019-02-23T12:28:02.050Z,1.49
2019-02-23T12:30:11.017Z,1.47
2019-02-23T12:32:17.295Z,1.54
2019-02-23T12:34:23.532Z,1.62
2019-02-23T12:36:29.756Z,1.69
2019-02-23T12:38:36.004Z,1.81
2019-02-23T12:40:42.234Z,1.77
2019-02-23T12:42:48.544Z,1.81
2019-02-23T12:44:54.739Z,1.88
2019-02-23T12:47:00.986Z,1.99
2019-02-23T12:49:07.275Z,1.98
2019-02-23T12:51:13.720Z,1.88
2019-02-23T12:53:19.979Z,1.88
2019-02-23T12:55:26.213Z,1.87
2019-02-23T12:57:33.740Z,2.03
2019-02-23T12:59:39.987Z,2.07
2019-02-23T13:01:46.291Z,2.11
2019-02-23T13:03:52.574Z,2.18
2019-02-23T13:05:58.806Z,2.05
2019-02-23T13:08:05.081Z,1.92
2019-02-23T13:10:13.134Z,2.04
2019-02-23T13:12:27.080Z,2.18
2019-02-23T13:14:55.718Z,2.19
2019-02-23T13:17:30.999Z,2.17
2019-02-23T13:20:13.224Z,2.19
2019-02-23T13:22:27.455Z,2.18
2019-02-23T13:24:50.429Z,2.05
2019-02-23T13:27:16.439Z,1.95
2019-02-23T13:29:56.589Z,2.07
2019-02-23T13:32:25.366Z,2.09
2019-02-23T13:35:08.375Z,2.23
2019-02-23T13:37:42.271Z,2.22
2019-02-23T13:40:01.856Z,2.41
2019-02-23T13:42:34.622Z,2.52
2019-02-23T13:45:20.185Z,2.54
2019-02-23T13:47:33.997Z,2.57
2019-02-23T13:50:14.884Z,2.38
2019-02-23T13:52:31.466Z,2.25
2019-02-23T13:55:08.026Z,2.34
2019-02-23T13:57:35.907Z,2.39
2019-02-23T14:00:03.616Z,2.39
2019-02-23T14:02:30.985Z,2.34
2019-02-23T14:04:54.073Z,2.25
2019-02-23T14:07:17.251Z,2.28
2019-02-23T14:09:56.616Z,2.17
2019-02-23T14:12:18.073Z,2.18
2019-02-23T14:14:29.176Z,2.25
2019-02-23T14:16:48.830Z,2.28
2019-02-23T14:19:13.210Z,2.32
2019-02-23T14:21:33.244Z,2.26
2019-02-23T14:23:51.022Z,2.26
2019-02-23T14:26:27.767Z,2.26
2019-02-23T14:28:55.025Z,2.14
2019-02-23T14:31:32.699Z,2.07
2019-02-23T14:34:04.982Z,2.08
2019-02-23T14:36:21.567Z,2.03
2019-02-23T14:38:53.499Z,1.88
2019-02-23T14:41:27.151Z,1.89
2019-02-23T14:44:03.539Z,1.85
2019-02-23T14:46:41.671Z,1.88
2019-02-23T14:49:16.354Z,1.73
2019-02-23T14:51:51.907Z,1.68
2019-02-23T14:54:20.794Z,1.66
2019-02-23T14:56:46.652Z,1.58
2019-02-23T14:59:29.162Z,1.57
2019-02-23T15:01:45.851Z,1.51
2019-02-23T15:04:11.925Z,1.47
2019-02-23T15:06:52.782Z,1.26
2019-02-23T15:09:18.853Z,1.26
2019-02-23T15:11:41.320Z,1.25
2019-02-23T15:14:26.559Z,1.23
2019-02-23T15:16:50.571Z,1.23
2019-02-23T15:19:46.121Z,1.15
2019-02-23T15:21:59.937Z,1.07
2019-02-23T15:24:50.400Z,1.03
2019-02-23T15:27:25.177Z,0.93
2019-02-23T15:30:03.175Z,0.85
2019-02-23T15:32:47.444Z,0.85
2019-02-23T15:35:20.763Z,0.85
2019-02-23T15:37:54.133Z,0.78
2019-02-23T15:40:26.259Z,0.70
2019-02-23T15:42:58.433Z,0.67
2019-02-23T15:45:24.253Z,0.60
2019-02-23T15:48:09.634Z,0.59
2019-02-23T15:50:15.998Z,0.51
2019-02-23T15:52:22.525Z,0.49
2019-02-23T15:54:29.325Z,0.51
2019-02-23T15:56:35.666Z,0.48
2019-02-23T15:58:41.979Z,0.47
2019-02-23T16:00:48.368Z,0.44
2019-02-23T16:02:54.600Z,0.39
2019-02-23T16:05:00.896Z,0.41
2019-02-23T16:07:07.402Z,0.41
2019-02-23T16:09:13.645Z,0.45
2019-02-23T16:11:19.872Z,0.44
2019-02-23T16:13:26.182Z,0.43
2019-02-23T16:15:33.345Z,0.39
2019-02-23T16:17:39.626Z,0.44
2019-02-23T16:19:46.044Z,0.44
2019-02-23T16:21:53.070Z,0.38
2019-02-23T16:23:59.430Z,0.27
2019-02-23T16:26:05.691Z,0.25
2019-02-23T16:28:11.983Z,0.18
2019-02-23T16:30:20.151Z,0.14
2019-02-23T16:32:26.407Z,0.10
2019-02-23T16:34:32.632Z,0.10
2019-02-23T16:36:39.015Z,0.08
2019-02-23T16:38:45.352Z,0.08
2019-02-23T16:40:52.115Z,0.04
2019-02-23T16:42:58.447Z,-0.03
2019-02-23T16:45:07.591Z,-0.06
2019-02-23T16:47:15.350Z,-0.10
2019-02-23T16:49:21.581Z,-0.14
2019-02-23T16:51:29.406Z,-0.13
2019-02-23T16:53:37.166Z,-0.14
2019-02-23T16:55:50.987Z,-0.08
2019-02-23T16:57:51.507Z,-0.09
2019-02-23T16:59:57.722Z,-0.11
2019-02-23T17:02:04.150Z,-0.13
2019-02-23T17:04:10.619Z,-0.18
2019-02-23T17:06:16.842Z,-0.23
2019-02-23T17:08:23.075Z,-0.29
2019-02-23T17:10:29.407Z,-0.36
2019-02-23T17:12:35.644Z,-0.47
2019-02-23T17:14:41.829Z,-0.53
2019-02-23T17:16:48.071Z,-0.60
2019-02-23T17:18:54.466Z,-0.66
2019-02-23T17:21:00.917Z,-0.68
2019-02-23T17:23:07.334Z,-0.72
2019-02-23T17:25:14.261Z,-0.73
2019-02-23T17:27:21.925Z,-0.76
2019-02-23T17:29:28.410Z,-0.76
2019-02-23T17:31:35.961Z,-0.76
2019-02-23T17:33:42.217Z,-0.75
2019-02-23T17:35:49.373Z,-0.73
2019-02-23T17:37:55.546Z,-0.69
2019-02-23T17:40:01.807Z,-0.69
2019-02-23T17:42:10.821Z,-0.68
2019-02-23T17:44:17.238Z,-0.68
2019-02-23T17:46:23.544Z,-0.69
2019-02-23T17:50:37.882Z,-0.65
2019-02-23T17:52:44.871Z,-0.65
2019-02-23T17:54:51.201Z,-0.69
2019-02-23T17:56:57.439Z,-0.66
2019-02-23T17:59:05.468Z,-0.66
2019-02-23T18:01:11.863Z,-0.63
2019-02-23T18:03:18.329Z,-0.61
2019-02-23T18:05:24.635Z,-0.62
2019-02-23T18:07:30.890Z,-0.59
2019-02-23T18:09:37.206Z,-0.59
2019-02-23T18:11:43.442Z,-0.57
2019-02-23T18:13:49.707Z,-0.59
2019-02-23T18:15:56.076Z,-0.60
2019-02-23T18:18:02.233Z,-0.63
2019-02-23T18:20:12.320Z,-0.62
2019-02-23T18:22:18.745Z,-0.65
2019-02-23T18:24:25.049Z,-0.73
2019-02-23T18:26:33.016Z,-0.77
2019-02-23T18:28:39.235Z,-0.81
2019-02-23T18:30:45.547Z,-0.81
2019-02-23T18:32:52.387Z,-0.82
2019-02-23T18:35:01.356Z,-0.86
2019-02-23T18:37:07.931Z,-0.88
2019-02-23T18:39:14.326Z,-0.89
2019-02-23T18:41:21.124Z,-0.87
2019-02-23T18:43:28.520Z,-0.85
2019-02-23T18:45:34.784Z,-0.85
2019-02-23T18:47:41.310Z,-0.84
2019-02-23T18:49:47.628Z,-0.81
2019-02-23T18:51:53.968Z,-0.79
2019-02-23T18:54:00.310Z,-0.76
2019-02-23T18:56:07.293Z,-0.71
2019-02-23T18:58:13.549Z,-0.72
2019-02-23T19:00:24.368Z,-0.68
2019-02-23T19:02:27.847Z,-0.67
2019-02-23T19:04:37.420Z,-0.65
2019-02-23T19:06:45.351Z,-0.62
2019-02-23T19:08:51.725Z,-0.59
2019-02-23T19:10:59.854Z,-0.61
2019-02-23T19:13:08.541Z,-0.61
2019-02-23T19:15:15.141Z,-0.60
2019-02-23T19:17:23.028Z,-0.59
2019-02-23T19:19:32.471Z,-0.60
2019-02-23T19:21:38.756Z,-0.59
2019-02-23T19:23:45.210Z,-0.61
2019-02-23T19:25:53.102Z,-0.63
2019-02-23T19:27:59.581Z,-0.64
2019-02-23T19:30:14.848Z,-0.64
2019-02-23T19:32:21.527Z,-0.64
2019-02-23T19:34:29.114Z,-0.64
2019-02-23T19:36:35.373Z,-0.64
2019-02-23T19:38:42.662Z,-0.59
2019-02-23T19:40:48.889Z,-0.56
2019-02-23T19:42:57.070Z,-0.52
2019-02-23T19:45:03.434Z,-0.55
2019-02-23T19:47:11.902Z,-0.55
2019-02-23T19:49:18.166Z,-0.57
2019-02-23T19:51:24.471Z,-0.60
2019-02-23T19:53:30.704Z,-0.62
2019-02-23T19:55:37.040Z,-0.61
2019-02-23T19:57:43.273Z,-0.62
2019-02-23T19:59:51.266Z,-0.64
2019-02-23T20:01:58.030Z,-0.65
2019-02-23T20:04:06.211Z,-0.71
2019-02-23T20:06:14.715Z,-0.68
2019-02-23T20:08:21.108Z,-0.68
2019-02-23T20:10:27.411Z,-0.68
2019-02-23T20:12:33.578Z,-0.64
2019-02-23T20:14:41.415Z,-0.66
2019-02-23T20:16:47.647Z,-0.66
2019-02-23T20:18:53.868Z,-0.66
2019-02-23T20:21:01.409Z,-0.66
2019-02-23T20:23:07.789Z,-0.67
2019-02-23T20:25:15.050Z,-0.67
2019-02-23T20:27:23.186Z,-0.67
2019-02-23T20:29:30.596Z,-0.68
2019-02-23T20:31:38.467Z,-0.64
2019-02-23T20:33:46.285Z,-0.65
2019-02-23T20:35:53.616Z,-0.67
2019-02-23T20:38:01.590Z,-0.64
2019-02-23T20:40:09.717Z,-0.62
2019-02-23T20:42:18.560Z,-0.62
2019-02-23T20:44:25.043Z,-0.68
2019-02-23T20:46:31.303Z,-0.72
2019-02-23T20:48:38.888Z,-0.71
2019-02-23T20:50:46.945Z,-0.72
2019-02-23T20:52:55.246Z,-0.75
2019-02-23T20:55:01.342Z,-0.72
2019-02-23T20:57:14.042Z,-0.72
2019-02-23T20:59:23.087Z,-0.72
2019-02-23T21:01:32.554Z,-0.73
2019-02-23T21:03:39.023Z,-0.75
2019-02-23T21:05:46.575Z,-0.77
2019-02-23T21:07:52.813Z,-0.77
2019-02-23T21:10:00.791Z,-0.75
2019-02-23T21:12:08.785Z,-0.78
2019-02-23T21:14:16.645Z,-0.80
2019-02-23T21:16:24.619Z,-0.82
2019-02-23T21:18:31.645Z,-0.83
2019-02-23T21:20:42.351Z,-0.87
2019-02-23T21:22:51.875Z,-0.86
2019-02-23T21:24:58.209Z,-0.82
2019-02-23T21:27:12.688Z,-0.78
2019-02-23T21:29:14.720Z,-0.79
2019-02-23T21:31:20.993Z,-0.79
2019-02-23T21:33:27.359Z,-0.81
2019-02-23T21:35:33.738Z,-0.79
2019-02-23T21:37:40.114Z,-0.78
2019-02-23T21:39:46.421Z,-0.82
2019-02-23T21:41:52.815Z,-0.82
2019-02-23T21:43:59.236Z,-0.83
2019-02-23T21:46:05.631Z,-0.85
2019-02-23T21:48:13.166Z,-0.84
2019-02-23T21:50:21.075Z,-0.83
2019-02-23T21:52:28.914Z,-0.83
2019-02-23T21:54:36.421Z,-0.83
2019-02-23T21:56:42.740Z,-0.84
2019-02-23T21:58:49.866Z,-0.81
2019-02-23T22:00:56.106Z,-0.82
2019-02-23T22:03:04.185Z,-0.81
2019-02-23T22:05:12.814Z,-0.83
2019-02-23T22:07:19.327Z,-0.82
2019-02-23T22:09:25.612Z,-0.86
2019-02-23T22:11:31.906Z,-0.83
2019-02-23T22:13:39.080Z,-0.86
2019-02-23T22:15:45.294Z,-0.86
2019-02-23T22:17:51.588Z,-0.88
2019-02-23T22:19:57.841Z,-0.84
2019-02-23T22:22:04.141Z,-0.81
2019-02-23T22:24:11.844Z,-0.78
2019-02-23T22:26:18.000Z,-0.78
2019-02-23T22:28:24.260Z,-0.81
2019-02-23T22:30:30.488Z,-0.83
2019-02-23T22:32:36.926Z,-0.80
2019-02-23T22:34:43.217Z,-0.79
2019-02-23T22:36:51.013Z,-0.78
2019-02-23T22:38:57.188Z,-0.79
2019-02-23T22:41:03.530Z,-0.80
2019-02-23T22:43:09.825Z,-0.77
2019-02-23T22:45:16.001Z,-0.79
2019-02-23T22:47:22.418Z,-0.78
2019-02-23T22:49:28.583Z,-0.78
2019-02-23T22:51:36.628Z,-0.76
2019-02-23T22:53:42.814Z,-0.73
2019-02-23T22:55:49.136Z,-0.70
2019-02-23T22:57:55.384Z,-0.71
2019-02-23T23:00:01.826Z,-0.72
2019-02-23T23:02:09.927Z,-0.72
2019-02-23T23:04:17.923Z,-0.72
2019-02-23T23:06:24.202Z,-0.70
2019-02-23T23:08:30.340Z,-0.74
2019-02-23T23:10:36.503Z,-0.73
2019-02-23T23:12:42.780Z,-0.72
2019-02-23T23:14:49.076Z,-0.70
2019-02-23T23:16:55.278Z,-0.69
2019-02-23T23:19:01.460Z,-0.68
2019-02-23T23:21:07.687Z,-0.69
2019-02-23T23:23:13.856Z,-0.69
2019-02-23T23:25:20.117Z,-0.70
2019-02-23T23:27:26.344Z,-0.70
2019-02-23T23:29:32.527Z,-0.65
2019-02-23T23:31:38.847Z,-0.62
2019-02-23T23:33:45.165Z,-0.59
2019-02-23T23:35:51.472Z,-0.62
2019-02-23T23:38:00.108Z,-0.60
2019-02-23T23:40:07.480Z,-0.62
2019-02-23T23:42:13.786Z,-0.63
2019-02-23T23:44:20.116Z,-0.62
2019-02-23T23:46:26.496Z,-0.62
2019-02-23T23:48:32.654Z,-0.66
2019-02-23T23:50:38.869Z,-0.63
2019-02-23T23:52:45.110Z,-0.62
2019-02-23T23:54:51.334Z,-0.62
2019-02-23T23:56:57.639Z,-0.61
2019-02-23T23:59:03.876Z,-0.60
